createdAt,value
2018-04-13T00:01:25.634Z,28.20
2018-04-13T00:03:55.471Z,26.17
2018-04-13T00:06:25.114Z,25.20
2018-04-13T00:08:57.777Z,32.77
2018-04-13T00:11:27.632Z,29.80
2018-04-13T00:13:57.583Z,25.37
2018-04-13T00:16:27.974Z,25.67
2018-04-13T00:18:58.497Z,32.97
2018-04-13T00:21:28.184Z,31.13
2018-04-13T00:23:57.762Z,28.10
2018-04-13T00:26:29.113Z,24.87
2018-04-13T00:28:58.752Z,23.23
2018-04-13T00:31:28.357Z,29.20
2018-04-13T00:33:57.970Z,24.10
2018-04-13T00:36:27.583Z,30.47
2018-04-13T00:38:57.316Z,28.67
2018-04-13T00:41:36.905Z,31.37
2018-04-13T00:44:10.400Z,24.00
2018-04-13T00:46:40.038Z,30.60
2018-04-13T00:49:10.157Z,25.90
2018-04-13T00:51:41.055Z,29.00
2018-04-13T00:54:11.573Z,27.40
2018-04-13T00:56:41.424Z,35.60
2018-04-13T00:59:11.719Z,25.73
2018-04-13T01:01:41.668Z,25.33
2018-04-13T01:04:13.092Z,32.83
2018-04-13T01:06:43.012Z,33.60
2018-04-13T01:09:13.373Z,27.40
2018-04-13T01:11:43.472Z,30.83
2018-04-13T01:14:13.430Z,28.10
2018-04-13T01:16:44.435Z,28.93
2018-04-13T01:19:14.850Z,42.53
2018-04-13T01:21:45.086Z,35.77
2018-04-13T01:24:14.842Z,28.87
2018-04-13T01:26:45.963Z,31.47
2018-04-13T01:29:15.688Z,28.67
2018-04-13T01:31:46.144Z,30.53
2018-04-13T01:34:16.797Z,24.30
2018-04-13T01:36:47.944Z,27.83
2018-04-13T01:39:19.273Z,17.77
2018-04-13T01:41:49.406Z,18.40
2018-04-13T01:44:19.707Z,16.90
2018-04-13T01:46:49.512Z,14.43
2018-04-13T01:49:19.281Z,9.77
2018-04-13T01:51:58.339Z,17.67
2018-04-13T01:54:28.056Z,10.87
2018-04-13T01:56:58.483Z,13.90
2018-04-13T01:59:28.216Z,10.13
2018-04-13T02:02:09.152Z,16.53
2018-04-13T02:04:40.545Z,17.03
2018-04-13T02:07:10.134Z,21.43
2018-04-13T02:09:40.030Z,16.17
2018-04-13T02:12:15.761Z,14.87
2018-04-13T02:14:53.986Z,17.60
2018-04-13T02:21:13.570Z,21.03
2018-04-13T02:23:43.757Z,19.20
2018-04-13T02:26:13.340Z,24.47
2018-04-13T02:28:43.219Z,24.57
2018-04-13T02:31:12.927Z,34.80
2018-04-13T02:33:43.251Z,22.23
2018-04-13T02:36:15.185Z,24.30
2018-04-13T02:39:03.256Z,33.53
2018-04-13T02:41:36.006Z,29.13
2018-04-13T02:44:05.565Z,29.77
2018-04-13T02:46:35.199Z,32.03
2018-04-13T02:49:07.038Z,35.23
2018-04-13T02:51:36.722Z,31.57
2018-04-13T02:54:06.454Z,40.43
2018-04-13T02:56:36.117Z,35.43
2018-04-13T02:59:07.218Z,34.00
2018-04-13T03:01:44.538Z,36.03
2018-04-13T03:04:14.245Z,35.63
2018-04-13T03:06:44.920Z,38.77
2018-04-13T03:09:18.810Z,42.63
2018-04-13T03:11:48.417Z,43.50
2018-04-13T03:14:18.852Z,41.77
2018-04-13T03:16:48.466Z,38.57
2018-04-13T03:19:18.314Z,44.77
2018-04-13T03:21:47.972Z,39.70
2018-04-13T03:24:17.631Z,41.83
2018-04-13T03:26:47.289Z,42.77
2018-04-13T03:29:16.879Z,31.67
2018-04-13T03:31:48.491Z,33.90
2018-04-13T03:34:19.473Z,22.50
2018-04-13T03:36:53.339Z,29.33
2018-04-13T03:39:23.922Z,22.13
2018-04-13T03:42:03.166Z,20.40
2018-04-13T03:44:36.236Z,27.77
2018-04-13T03:47:06.170Z,25.23
2018-04-13T03:49:37.531Z,23.87
2018-04-13T03:52:08.815Z,22.80
2018-04-13T03:54:40.360Z,22.80
2018-04-13T03:57:11.288Z,27.10
2018-04-13T03:59:41.093Z,24.63
2018-04-13T04:02:20.802Z,27.13
2018-04-13T04:04:51.431Z,19.17
2018-04-13T04:07:29.979Z,22.47
2018-04-13T04:09:59.806Z,19.77
2018-04-13T04:12:30.825Z,25.30
2018-04-13T04:15:00.589Z,17.40
2018-04-13T04:17:30.590Z,21.73
2018-04-13T04:20:18.087Z,26.87
2018-04-13T04:23:05.225Z,30.83
2018-04-13T04:25:53.161Z,27.90
2018-04-13T04:28:23.795Z,20.77
2018-04-13T04:30:54.939Z,24.83
2018-04-13T04:33:25.452Z,32.40
2018-04-13T04:35:55.167Z,28.23
2018-04-13T04:38:26.532Z,22.40
2018-04-13T04:40:56.123Z,24.50
2018-04-13T04:43:26.511Z,22.83
2018-04-13T04:45:56.122Z,24.67
2018-04-13T04:48:25.742Z,26.17
2018-04-13T04:50:55.339Z,24.50
2018-04-13T04:53:25.036Z,19.20
2018-04-13T04:55:54.654Z,18.37
2018-04-13T04:58:24.340Z,21.40
2018-04-13T05:00:53.963Z,26.23
2018-04-13T05:03:23.653Z,22.23
2018-04-13T05:05:53.466Z,21.63
2018-04-13T05:08:24.017Z,14.80
2018-04-13T05:10:53.987Z,19.50
2018-04-13T05:13:29.274Z,23.33
2018-04-13T05:15:58.998Z,27.33
2018-04-13T05:18:28.472Z,23.97
2018-04-13T05:20:58.029Z,21.37
2018-04-13T05:23:27.936Z,24.83
2018-04-13T05:25:57.610Z,28.53
2018-04-13T05:28:27.195Z,28.73
2018-04-13T05:30:56.905Z,30.57
2018-04-13T05:33:27.131Z,32.17
2018-04-13T05:35:57.302Z,31.63
2018-04-13T05:38:27.275Z,34.60
2018-04-13T05:40:57.801Z,35.97
2018-04-13T05:43:28.081Z,30.43
2018-04-13T05:45:58.227Z,34.40
2018-04-13T05:48:30.986Z,34.20
2018-04-13T05:51:01.098Z,29.70
2018-04-13T05:53:31.058Z,29.00
2018-04-13T05:56:01.479Z,29.87
2018-04-13T05:58:30.977Z,29.27
2018-04-13T06:01:00.610Z,36.77
2018-04-13T06:03:31.935Z,45.97
2018-04-13T06:06:03.538Z,47.47
2018-04-13T06:08:33.140Z,34.50
2018-04-13T06:11:02.765Z,39.23
2018-04-13T06:13:33.318Z,25.97
2018-04-13T06:16:03.762Z,44.33
2018-04-13T06:18:34.113Z,33.83
2018-04-13T06:21:03.833Z,43.00
2018-04-13T06:23:33.471Z,38.80
2018-04-13T06:26:03.418Z,29.33
2018-04-13T06:28:33.355Z,25.90
2018-04-13T06:31:02.960Z,27.43
2018-04-13T06:33:32.675Z,28.03
2018-04-13T06:36:02.279Z,36.23
2018-04-13T06:38:32.052Z,28.33
2018-04-13T06:41:02.988Z,132.57
2018-04-13T06:43:35.091Z,38.03
2018-04-13T06:46:05.465Z,30.37
2018-04-13T06:48:35.797Z,27.47
2018-04-13T06:51:08.505Z,60.87
2018-04-13T06:53:38.568Z,21.20
2018-04-13T06:56:08.685Z,20.10
2018-04-13T06:58:38.571Z,11.97
2018-04-13T07:01:09.100Z,15.03
2018-04-13T07:03:39.398Z,15.83
2018-04-13T07:06:09.775Z,16.83
2018-04-13T07:08:39.272Z,11.30
2018-04-13T07:11:08.768Z,11.73
2018-04-13T07:13:39.111Z,12.77
2018-04-13T07:16:08.653Z,12.67
2018-04-13T07:18:38.256Z,10.70
2018-04-13T07:21:07.884Z,9.17
2018-04-13T07:23:37.413Z,12.67
2018-04-13T07:26:07.838Z,10.83
2018-04-13T07:28:38.169Z,8.57
2018-04-13T07:31:09.141Z,9.07
2018-04-13T07:33:39.375Z,8.50
2018-04-13T07:36:08.524Z,9.70
2018-04-13T07:38:38.896Z,8.03
2018-04-13T07:41:08.522Z,9.83
2018-04-13T07:43:38.065Z,10.00
2018-04-13T07:46:07.674Z,6.87
2018-04-13T07:48:38.041Z,8.50
2018-04-13T07:51:07.654Z,12.20
2018-04-13T07:53:37.174Z,4.47
2018-04-13T07:56:16.968Z,7.70
2018-04-13T07:58:49.154Z,7.47
2018-04-13T08:01:18.861Z,6.00
2018-04-13T08:03:48.425Z,8.47
2018-04-13T08:06:18.850Z,5.63
2018-04-13T08:08:48.328Z,9.40
2018-04-13T08:11:17.955Z,4.50
2018-04-13T08:13:47.595Z,9.23
2018-04-13T08:16:17.223Z,4.53
2018-04-13T08:18:47.644Z,5.03
2018-04-13T08:21:17.182Z,9.10
2018-04-13T08:23:46.739Z,6.93
2018-04-13T08:26:27.991Z,7.97
2018-04-13T08:28:57.576Z,12.03
2018-04-13T08:31:27.363Z,10.23
2018-04-13T08:33:56.950Z,5.40
2018-04-13T08:36:27.442Z,5.57
2018-04-13T08:38:57.041Z,5.97
2018-04-13T08:41:26.659Z,6.43
2018-04-13T08:43:56.256Z,5.80
2018-04-13T08:46:25.906Z,8.20
2018-04-13T08:48:56.939Z,5.70
2018-04-13T08:51:26.753Z,4.40
2018-04-13T08:53:56.336Z,6.47
2018-04-13T08:56:25.923Z,6.03
2018-04-13T08:58:56.176Z,4.97
2018-04-13T09:01:25.761Z,6.10
2018-04-13T09:03:55.344Z,7.70
2018-04-13T09:06:25.104Z,5.77
2018-04-13T09:08:54.763Z,7.83
2018-04-13T09:11:25.804Z,9.67
2018-04-13T09:13:55.773Z,5.70
2018-04-13T09:16:25.480Z,6.53
2018-04-13T09:19:00.593Z,6.43
2018-04-13T09:21:32.854Z,5.20
2018-04-13T09:24:02.396Z,2.43
2018-04-13T09:26:32.071Z,3.60
2018-04-13T09:29:01.934Z,5.90
2018-04-13T09:31:32.260Z,3.83
2018-04-13T09:34:05.052Z,4.57
2018-04-13T09:36:44.438Z,3.83
2018-04-13T09:39:15.085Z,2.47
2018-04-13T09:41:45.295Z,2.70
2018-04-13T09:44:16.282Z,5.90
2018-04-13T09:46:45.884Z,5.07
2018-04-13T09:49:16.839Z,4.07
2018-04-13T09:51:47.151Z,7.13
2018-04-13T09:54:17.511Z,4.87
2018-04-13T09:56:47.175Z,5.17
2018-04-13T09:59:16.724Z,4.83
2018-04-13T10:01:46.434Z,4.00
2018-04-13T10:04:16.825Z,9.87
2018-04-13T10:06:46.443Z,3.83
2018-04-13T10:09:16.061Z,7.73
2018-04-13T10:11:46.497Z,8.60
2018-04-13T10:14:16.075Z,5.20
2018-04-13T10:16:45.828Z,3.20
2018-04-13T10:19:16.592Z,2.70
2018-04-13T10:21:46.292Z,3.77
2018-04-13T10:24:16.673Z,5.07
2018-04-13T10:26:46.252Z,5.30
2018-04-13T10:29:15.787Z,3.63
2018-04-13T10:31:45.807Z,2.63
2018-04-13T10:34:15.469Z,2.13
2018-04-13T10:40:42.272Z,2.43
2018-04-13T10:44:11.057Z,2.20
2018-04-13T10:46:53.187Z,4.47
2018-04-13T10:49:23.642Z,6.00
2018-04-13T10:51:53.272Z,4.40
2018-04-13T10:54:23.347Z,2.87
2018-04-13T10:56:52.951Z,5.43
2018-04-13T10:59:22.660Z,3.40
2018-04-13T11:01:53.119Z,4.67
2018-04-13T11:04:22.798Z,5.77
2018-04-13T11:06:53.250Z,4.03
2018-04-13T11:09:22.905Z,6.83
2018-04-13T11:11:53.753Z,2.67
2018-04-13T11:14:24.069Z,4.43
2018-04-13T11:16:54.786Z,4.77
2018-04-13T11:19:24.436Z,3.57
2018-04-13T11:21:54.890Z,3.03
2018-04-13T11:24:25.191Z,3.57
2018-04-13T11:26:54.776Z,3.60
2018-04-13T11:29:24.716Z,5.53
2018-04-13T11:31:55.262Z,3.23
2018-04-13T11:34:24.854Z,1.90
2018-04-13T11:36:54.431Z,5.83
2018-04-13T11:39:24.871Z,5.23
2018-04-13T11:41:54.515Z,3.63
2018-04-13T11:44:24.945Z,2.27
2018-04-13T11:46:54.667Z,3.93
2018-04-13T11:49:24.294Z,3.50
2018-04-13T11:51:53.981Z,1.77
2018-04-13T11:54:23.547Z,3.67
2018-04-13T11:56:53.222Z,5.30
2018-04-13T11:59:24.236Z,3.70
2018-04-13T12:01:54.038Z,2.37
2018-04-13T12:04:24.679Z,3.37
2018-04-13T12:06:55.055Z,4.13
2018-04-13T12:09:24.846Z,3.90
2018-04-13T12:11:54.602Z,2.47
2018-04-13T12:14:31.003Z,3.43
2018-04-13T12:17:01.425Z,3.43
2018-04-13T12:19:31.254Z,4.90
2018-04-13T12:22:00.865Z,3.63
2018-04-13T12:24:30.372Z,3.47
2018-04-13T12:27:00.214Z,4.17
2018-04-13T12:29:31.226Z,4.03
2018-04-13T12:32:00.969Z,3.10
2018-04-13T12:34:31.487Z,4.77
2018-04-13T12:37:02.354Z,3.60
2018-04-13T12:39:32.154Z,2.43
2018-04-13T12:42:01.835Z,3.33
2018-04-13T12:44:38.341Z,2.57
2018-04-13T12:47:09.448Z,5.87
2018-04-13T12:49:39.879Z,3.43
2018-04-13T12:52:10.295Z,2.20
2018-04-13T12:54:40.245Z,2.60
2018-04-13T12:57:10.514Z,2.53
2018-04-13T12:59:44.137Z,2.67
2018-04-13T13:09:31.336Z,4.87
2018-04-13T13:12:01.592Z,1.80
2018-04-13T13:14:31.957Z,3.67
2018-04-13T13:17:01.748Z,1.87
2018-04-13T13:19:32.117Z,3.30
2018-04-13T13:22:01.929Z,1.83
2018-04-13T13:24:31.681Z,2.97
2018-04-13T13:27:01.275Z,1.50
2018-04-13T13:29:31.036Z,4.53
2018-04-13T13:32:01.272Z,1.60
2018-04-13T13:34:30.964Z,3.53
2018-04-13T13:37:00.597Z,1.73
2018-04-13T13:39:30.193Z,4.93
2018-04-13T13:41:59.832Z,1.60
2018-04-13T13:44:29.938Z,2.43
2018-04-13T13:46:59.491Z,2.23
2018-04-13T13:49:32.887Z,1.23
2018-04-13T13:52:02.405Z,2.43
2018-04-13T13:54:35.644Z,3.23
2018-04-13T13:57:05.269Z,3.73
2018-04-13T13:59:34.860Z,2.10
2018-04-13T14:02:04.606Z,5.50
2018-04-13T14:04:35.686Z,6.67
2018-04-13T14:07:08.925Z,4.90
2018-04-13T14:09:39.160Z,3.47
2018-04-13T14:12:08.888Z,4.30
2018-04-13T14:14:39.430Z,7.00
2018-04-13T14:17:09.866Z,1.83
2018-04-13T14:19:40.162Z,2.30
2018-04-13T14:22:09.967Z,4.27
2018-04-13T14:24:39.657Z,3.03
2018-04-13T14:27:09.584Z,3.97
2018-04-13T14:29:39.412Z,2.43
2018-04-13T14:32:10.128Z,2.30
2018-04-13T14:34:40.144Z,3.40
2018-04-13T14:37:10.329Z,3.50
2018-04-13T14:39:40.838Z,2.97
2018-04-13T14:42:11.770Z,3.53
2018-04-13T14:44:41.765Z,2.47
2018-04-13T14:47:12.554Z,3.13
2018-04-13T14:49:43.208Z,5.17
2018-04-13T14:52:13.050Z,2.00
2018-04-13T14:54:42.951Z,1.80
2018-04-13T14:57:12.677Z,2.20
2018-04-13T14:59:42.529Z,4.23
2018-04-13T15:02:12.630Z,2.63
2018-04-13T15:04:42.893Z,3.00
2018-04-13T15:07:13.559Z,3.23
2018-04-13T15:09:43.635Z,2.07
2018-04-13T15:12:13.567Z,2.03
2018-04-13T15:14:43.719Z,3.67
2018-04-13T15:17:13.545Z,2.47
2018-04-13T15:19:43.678Z,2.70
2018-04-13T15:22:13.571Z,1.87
2018-04-13T15:24:43.760Z,1.57
2018-04-13T15:27:13.640Z,2.80
2018-04-13T15:29:43.878Z,2.60
2018-04-13T15:32:13.761Z,3.67
2018-04-13T15:34:44.024Z,2.33
2018-04-13T15:37:14.638Z,2.70
2018-04-13T15:39:45.108Z,2.93
2018-04-13T15:42:14.948Z,3.77
2018-04-13T15:44:45.166Z,2.67
2018-04-13T15:47:15.132Z,3.47
2018-04-13T15:49:46.088Z,4.73
2018-04-13T15:52:16.158Z,1.90
2018-04-13T15:54:46.318Z,4.00
2018-04-13T15:57:16.354Z,3.33
2018-04-13T15:59:46.290Z,3.63
2018-04-13T16:02:16.209Z,2.90
2018-04-13T16:04:46.141Z,3.57
2018-04-13T16:07:16.094Z,3.60
2018-04-13T16:09:46.877Z,4.53
2018-04-13T16:12:16.843Z,3.90
2018-04-13T16:14:46.963Z,2.87
2018-04-13T16:17:16.859Z,5.07
2018-04-13T16:19:46.890Z,3.50
2018-04-13T16:22:17.339Z,2.07
2018-04-13T16:24:48.139Z,5.13
2018-04-13T16:27:18.139Z,6.00
2018-04-13T16:29:48.113Z,1.97
2018-04-13T16:32:18.932Z,4.23
2018-04-13T16:34:48.828Z,2.87
2018-04-13T16:37:18.653Z,2.63
2018-04-13T16:39:48.547Z,3.63
2018-04-13T16:42:18.476Z,2.77
2018-04-13T16:44:48.310Z,2.50
2018-04-13T16:47:19.022Z,5.47
2018-04-13T16:49:49.644Z,5.13
2018-04-13T16:52:20.573Z,4.23
2018-04-13T16:54:50.534Z,4.50
2018-04-13T16:57:21.234Z,5.30
2018-04-13T17:03:08.922Z,4.10
2018-04-13T17:05:40.181Z,11.43
2018-04-13T17:08:10.192Z,22.07
2018-04-13T17:10:40.020Z,16.33
2018-04-13T17:13:09.995Z,11.50
2018-04-13T17:15:39.973Z,8.90
2018-04-13T17:18:09.913Z,11.57
2018-04-13T17:20:39.766Z,8.27
2018-04-13T17:23:11.325Z,6.57
2018-04-13T17:25:41.876Z,5.13
2018-04-13T17:28:12.316Z,6.50
2018-04-13T17:30:42.305Z,8.10
2018-04-13T17:33:12.422Z,8.07
2018-04-13T17:35:42.456Z,8.47
2018-04-13T17:38:12.588Z,5.33
2018-04-13T17:40:42.747Z,3.10
2018-04-13T17:43:13.424Z,4.10
2018-04-13T17:45:43.897Z,4.83
2018-04-13T17:48:14.610Z,39.17
2018-04-13T17:50:44.875Z,8.90
2018-04-13T17:53:14.632Z,8.10
2018-04-13T17:55:44.851Z,6.00
2018-04-13T17:58:14.816Z,6.57
2018-04-13T18:00:45.907Z,5.90
2018-04-13T18:03:15.734Z,5.87
2018-04-13T18:05:45.910Z,5.17
2018-04-13T18:08:16.562Z,6.07
2018-04-13T18:10:46.699Z,7.67
2018-04-13T18:13:16.593Z,10.50
2018-04-13T18:15:46.548Z,13.13
2018-04-13T18:18:16.833Z,8.37
2018-04-13T18:20:47.538Z,11.97
2018-04-13T18:23:20.199Z,11.83
2018-04-13T18:25:50.121Z,15.47
2018-04-13T18:28:19.970Z,11.60
2018-04-13T18:30:50.722Z,5.03
2018-04-13T18:33:21.312Z,6.50
2018-04-13T18:35:51.232Z,7.53
2018-04-13T18:38:21.038Z,4.53
2018-04-13T18:40:50.986Z,11.13
2018-04-13T18:43:21.558Z,8.03
2018-04-13T18:45:51.474Z,7.40
2018-04-13T18:48:21.343Z,11.53
2018-04-13T18:50:52.038Z,9.90
2018-04-13T18:53:21.842Z,6.33
2018-04-13T18:55:51.808Z,23.27
2018-04-13T18:58:22.397Z,23.37
2018-04-13T19:00:52.298Z,13.80
2018-04-13T19:03:22.100Z,17.07
2018-04-13T19:05:52.826Z,5.80
2018-04-13T19:08:22.656Z,4.70
2018-04-13T19:10:52.545Z,4.90
2018-04-13T19:13:22.487Z,4.60
2018-04-13T19:15:52.708Z,4.87
2018-04-13T19:18:22.752Z,6.57
2018-04-13T19:20:52.712Z,7.10
2018-04-13T19:23:22.586Z,7.20
2018-04-13T19:25:52.552Z,5.27
2018-04-13T19:28:22.474Z,4.67
2018-04-13T19:30:52.428Z,6.70
2018-04-13T19:33:22.761Z,8.27
2018-04-13T19:35:53.385Z,4.90
2018-04-13T19:38:23.277Z,7.27
2018-04-13T19:40:54.029Z,8.27
2018-04-13T19:43:23.997Z,6.47
2018-04-13T19:45:54.635Z,7.63
2018-04-13T19:48:24.606Z,8.47
2018-04-13T19:50:54.491Z,6.50
2018-04-13T19:53:25.427Z,7.77
2018-04-13T19:55:55.321Z,4.87
2018-04-13T19:58:26.163Z,7.03
2018-04-13T20:00:56.098Z,4.10
2018-04-13T20:03:26.109Z,3.67
2018-04-13T20:05:56.666Z,5.40
2018-04-13T20:08:26.777Z,5.50
2018-04-13T20:10:56.653Z,9.37
2018-04-13T20:13:26.644Z,7.47
2018-04-13T20:15:57.459Z,7.00
2018-04-13T20:18:28.736Z,11.67
2018-04-13T20:20:59.479Z,8.80
2018-04-13T20:23:31.491Z,8.93
2018-04-13T20:26:02.553Z,4.37
2018-04-13T20:28:33.872Z,7.27
2018-04-13T20:31:03.841Z,6.47
2018-04-13T20:33:33.846Z,6.37
2018-04-13T20:36:03.825Z,6.93
2018-04-13T20:38:40.803Z,8.57
2018-04-13T20:41:12.097Z,8.37
2018-04-13T20:43:44.259Z,4.17
2018-04-13T20:46:21.566Z,5.10
2018-04-13T20:48:53.489Z,3.73
2018-04-13T20:51:23.383Z,4.37
2018-04-13T20:53:59.134Z,5.63
2018-04-13T20:56:29.040Z,6.17
2018-04-13T20:58:59.302Z,5.53
2018-04-13T21:01:31.307Z,7.33
2018-04-13T21:04:02.299Z,6.17
2018-04-13T21:06:32.406Z,6.30
2018-04-13T21:09:03.236Z,11.47
2018-04-13T21:11:34.333Z,7.17
2018-04-13T21:14:06.117Z,7.20
2018-04-13T21:16:38.394Z,6.10
2018-04-13T21:19:08.927Z,5.30
2018-04-13T21:21:39.265Z,5.47
2018-04-13T21:24:09.413Z,6.87
2018-04-13T21:26:39.531Z,3.80
2018-04-13T21:29:09.813Z,9.67
2018-04-13T21:31:39.910Z,5.27
2018-04-13T21:34:10.260Z,12.73
2018-04-13T21:36:46.195Z,13.13
2018-04-13T21:39:16.735Z,5.20
2018-04-13T21:41:53.668Z,7.00
2018-04-13T21:44:29.809Z,5.17
2018-04-13T21:47:00.250Z,4.37
2018-04-13T21:49:29.914Z,7.43
2018-04-13T21:52:00.276Z,8.40
2018-04-13T21:54:29.959Z,6.73
2018-04-13T21:56:59.475Z,8.00
2018-04-13T21:59:29.137Z,6.50
2018-04-13T22:01:58.804Z,5.63
2018-04-13T22:04:28.303Z,5.27
2018-04-13T22:06:58.211Z,6.37
2018-04-13T22:09:27.913Z,7.60
2018-04-13T22:11:57.376Z,7.73
2018-04-13T22:14:49.399Z,4.10
2018-04-13T22:17:23.342Z,5.97
2018-04-13T22:19:55.412Z,5.83
2018-04-13T22:22:24.976Z,6.30
2018-04-13T22:24:55.509Z,7.00
2018-04-13T22:27:25.853Z,7.43
2018-04-13T22:29:55.514Z,6.30
2018-04-13T22:32:25.067Z,4.53
2018-04-13T22:34:54.650Z,6.73
2018-04-13T22:37:25.115Z,6.90
2018-04-13T22:39:55.465Z,6.43
2018-04-13T22:42:25.893Z,5.10
2018-04-13T22:44:56.792Z,6.73
2018-04-13T22:47:26.464Z,5.30
2018-04-13T22:49:57.176Z,5.60
2018-04-13T22:52:29.500Z,7.57
2018-04-13T22:54:59.898Z,8.20
2018-04-13T22:57:31.630Z,12.63
2018-04-13T23:00:02.062Z,14.13
2018-04-13T23:02:31.365Z,7.47
2018-04-13T23:05:00.979Z,8.43
2018-04-13T23:07:30.800Z,7.03
2018-04-13T23:10:00.399Z,8.67
2018-04-13T23:12:29.983Z,4.63
2018-04-13T23:14:59.625Z,5.27
2018-04-13T23:17:29.216Z,5.87
2018-04-13T23:19:58.856Z,3.57
2018-04-13T23:22:38.140Z,4.63
2018-04-13T23:25:07.802Z,6.60
2018-04-13T23:27:38.201Z,6.17
2018-04-13T23:30:08.880Z,8.20
2018-04-13T23:32:39.821Z,6.93
2018-04-13T23:35:09.841Z,9.23
2018-04-13T23:37:39.449Z,7.90
2018-04-13T23:40:10.480Z,8.97
2018-04-13T23:42:40.280Z,6.47
2018-04-13T23:45:17.261Z,8.43
2018-04-13T23:47:48.497Z,9.13
2018-04-13T23:50:19.019Z,7.73
2018-04-13T23:52:48.736Z,4.13
2018-04-13T23:55:19.107Z,10.07
2018-04-13T23:57:48.916Z,5.97
